Time;durP1;ratioP1;P1;durP2;ratioP2;P2;SDS_P1;SDS_P2;PMS_P1;PMS_P2;Temp;Humidity;BMP_temperature;BMP_pressure;BME280_temperature;BME280_humidity;BME280_pressure;Samples;Min_cycle;Max_cycle;Signal;HPM_P1;HPM_P2
2022/12/25 00:01:53;;;;;;;173.70;43.63;;;;;;;;;;5049976;28;20423;-65
2022/12/25 00:04:19;;;;;;;133.13;38.13;;;;;;;;;;5049263;28;20057;-65
2022/12/25 00:06:45;;;;;;;135.80;37.63;;;;;;;;;;5050076;28;20044;-65
2022/12/25 00:09:11;;;;;;;144.60;41.53;;;;;;;;;;5050039;28;20045;-65
2022/12/25 00:11:37;;;;;;;135.30;38.60;;;;;;;;;;5049865;28;20414;-65
2022/12/25 00:14:04;;;;;;;171.07;44.67;;;;;;;;;;5049300;28;20056;-65
2022/12/25 00:16:30;;;;;;;180.87;49.93;;;;;;;;;;5049945;28;20041;-66
2022/12/25 00:18:57;;;;;;;197.40;49.40;;;;;;;;;;5049951;28;20053;-66
2022/12/25 00:21:24;;;;;;;153.67;39.77;;;;;;;;;;5049762;28;20098;-66
2022/12/25 00:23:53;;;;;;;147.93;40.53;;;;;;;;;;5049594;28;20049;-66
2022/12/25 00:26:20;;;;;;;140.40;40.57;;;;;;;;;;5048858;28;20052;-65
2022/12/25 00:28:46;;;;;;;162.73;39.97;;;;;;;;;;5049773;28;20048;-65
2022/12/25 00:31:13;;;;;;;169.30;42.93;;;;;;;;;;5048374;28;20518;-65
2022/12/25 00:33:40;;;;;;;200.53;45.37;;;;;;;;;;5049130;28;20067;-66
2022/12/25 00:36:07;;;;;;;187.23;45.17;;;;;;;;;;5047638;28;20053;-65
2022/12/25 00:38:34;;;;;;;199.10;46.07;;;;;;;;;;5049603;28;20056;-65
2022/12/25 00:41:04;;;;;;;195.90;46.67;;;;;;;;;;5047889;28;20048;-66
2022/12/25 00:43:30;;;;;;;179.57;44.77;;;;;;;;;;5049320;28;20084;-65
2022/12/25 00:45:58;;;;;;;160.47;39.97;;;;;;;;;;5048901;28;20049;-66
2022/12/25 00:48:25;;;;;;;137.87;37.17;;;;;;;;;;5047997;28;20087;-65
2022/12/25 00:50:59;;;;;;;151.80;41.00;;;;;;;;;;5031062;28;20045;-65
2022/12/25 00:53:26;;;;;;;142.47;36.90;;;;;;;;;;5049191;28;20056;-66
2022/12/25 00:55:56;;;;;;;150.93;37.37;;;;;;;;;;5049213;28;20045;-65
2022/12/25 00:58:22;;;;;;;137.93;38.30;;;;;;;;;;5048353;28;20388;-65
2022/12/25 01:00:48;;;;;;;134.63;35.57;;;;;;;;;;5048891;28;20045;-66
2022/12/25 01:03:15;;;;;;;113.07;32.37;;;;;;;;;;5048085;28;20056;-65
2022/12/25 01:05:41;;;;;;;107.27;31.00;;;;;;;;;;5047595;28;20049;-65
2022/12/25 01:08:07;;;;;;;92.00;30.43;;;;;;;;;;5048525;28;20044;-66
2022/12/25 01:10:34;;;;;;;107.80;30.30;;;;;;;;;;5049157;28;20045;-66
2022/12/25 01:13:00;;;;;;;110.57;32.07;;;;;;;;;;5030691;28;20056;-65
2022/12/25 01:15:26;;;;;;;98.37;30.57;;;;;;;;;;5047618;28;20056;-65
2022/12/25 01:17:52;;;;;;;105.60;30.27;;;;;;;;;;5048654;28;20557;-65
2022/12/25 01:20:18;;;;;;;103.33;31.13;;;;;;;;;;5048576;28;20045;-66
2022/12/25 01:22:44;;;;;;;103.90;31.90;;;;;;;;;;5048546;28;20060;-65
2022/12/25 01:25:11;;;;;;;98.57;31.60;;;;;;;;;;5048031;28;20087;-65
2022/12/25 01:27:38;;;;;;;95.87;30.27;;;;;;;;;;5048540;28;20053;-66
2022/12/25 01:30:05;;;;;;;102.23;30.83;;;;;;;;;;5047312;28;20044;-66
2022/12/25 01:32:31;;;;;;;82.33;27.80;;;;;;;;;;5048182;28;20095;-66
2022/12/25 01:34:57;;;;;;;83.07;28.10;;;;;;;;;;5048377;28;20066;-66
2022/12/25 01:37:24;;;;;;;80.10;28.53;;;;;;;;;;5047035;28;20041;-66
2022/12/25 01:39:50;;;;;;;86.30;28.40;;;;;;;;;;5047735;28;20405;-65
2022/12/25 01:42:18;;;;;;;96.30;27.47;;;;;;;;;;5048058;28;20502;-66
2022/12/25 01:44:47;;;;;;;79.47;25.63;;;;;;;;;;5047033;28;20053;-66
2022/12/25 01:47:14;;;;;;;73.10;26.40;;;;;;;;;;5048179;28;20076;-66
2022/12/25 01:49:41;;;;;;;70.50;23.93;;;;;;;;;;5030467;28;20045;-66
2022/12/25 01:52:09;;;;;;;66.80;22.73;;;;;;;;;;5048060;28;20115;-66
2022/12/25 01:54:46;;;;;;;80.17;25.17;;;;;;;;;;5047319;28;20049;-66
2022/12/25 01:57:16;;;;;;;84.77;25.87;;;;;;;;;;5046870;28;20395;-66
2022/12/25 01:59:42;;;;;;;63.70;23.70;;;;;;;;;;5048016;28;20128;-66
2022/12/25 02:02:08;;;;;;;61.77;21.83;;;;;;;;;;5046868;28;20052;-66
2022/12/25 02:04:56;;;;;;;87.23;26.57;;;;;;;;;;5047631;28;20048;-66
2022/12/25 02:07:24;;;;;;;79.50;23.70;;;;;;;;;;5036507;28;20412;-66
2022/12/25 02:09:50;;;;;;;84.57;26.13;;;;;;;;;;5046862;28;20052;-65
2022/12/25 02:12:21;;;;;;;64.90;23.27;;;;;;;;;;5047895;28;20041;-66
2022/12/25 02:14:49;;;;;;;74.87;22.63;;;;;;;;;;5047880;28;20522;-66
2022/12/25 02:17:32;;;;;;;71.63;23.60;;;;;;;;;;5047435;28;20045;-66
2022/12/25 02:19:58;;;;;;;69.43;22.77;;;;;;;;;;5048062;28;20191;-66
2022/12/25 02:22:42;;;;;;;76.67;25.10;;;;;;;;;;5047937;28;20128;-66
2022/12/25 02:25:09;;;;;;;100.33;26.77;;;;;;;;;;5047814;28;20060;-66
2022/12/25 02:27:41;;;;;;;71.90;23.77;;;;;;;;;;5051690;28;20052;-66
2022/12/25 02:30:09;;;;;;;74.70;23.00;;;;;;;;;;5051258;28;20092;-66
2022/12/25 02:32:42;;;;;;;72.20;22.60;;;;;;;;;;5050425;28;20057;-66
2022/12/25 02:35:08;;;;;;;73.35;23.58;;;;;;;;;;5051639;28;20106;-66
2022/12/25 02:37:44;;;;;;;65.60;22.83;;;;;;;;;;5051630;28;20115;-66
2022/12/25 02:40:18;;;;;;;62.77;22.03;;;;;;;;;;5051333;28;20048;-66
2022/12/25 03:07:42;;;;;;;60.17;19.53;;;;;;;;;;5051139;28;20426;-67
2022/12/25 03:13:05;;;;;;;65.63;21.53;;;;;;;;;;5050756;28;20045;-66
2022/12/25 03:18:19;;;;;;;62.73;20.87;;;;;;;;;;5050906;28;20045;-66
2022/12/25 03:29:02;;;;;;;62.00;20.57;;;;;;;;;;5050792;28;20053;-66
2022/12/25 03:31:34;;;;;;;76.00;23.27;;;;;;;;;;5050653;28;20449;-66
2022/12/25 04:38:01;;;;;;;75.23;26.03;;;;;;;;;;5049255;28;20052;-66
2022/12/25 04:40:27;;;;;;;90.07;27.87;;;;;;;;;;5049259;28;20411;-66
2022/12/25 04:42:53;;;;;;;96.00;30.07;;;;;;;;;;5047990;28;20047;-66
2022/12/25 04:45:19;;;;;;;87.63;29.20;;;;;;;;;;5047847;28;20063;-66
2022/12/25 04:47:45;;;;;;;83.83;29.47;;;;;;;;;;5049188;28;20098;-66
2022/12/25 04:50:11;;;;;;;106.40;31.80;;;;;;;;;;5048052;28;20132;-66
2022/12/25 04:52:39;;;;;;;77.77;28.60;;;;;;;;;;5047241;28;20047;-66
2022/12/25 04:55:05;;;;;;;75.53;26.47;;;;;;;;;;5047981;28;20048;-66
2022/12/25 04:57:33;;;;;;;73.37;27.00;;;;;;;;;;5049256;28;20073;-66
2022/12/25 04:59:59;;;;;;;79.67;28.03;;;;;;;;;;5048449;28;20059;-66
2022/12/25 05:02:25;;;;;;;74.20;26.67;;;;;;;;;;5049002;28;20565;-66
2022/12/25 05:04:51;;;;;;;83.20;28.03;;;;;;;;;;5047879;28;20061;-66
2022/12/25 05:07:17;;;;;;;87.47;31.07;;;;;;;;;;5049150;28;20056;-65
2022/12/25 05:09:43;;;;;;;85.17;28.20;;;;;;;;;;5048925;28;20045;-66
2022/12/25 05:12:09;;;;;;;79.87;28.77;;;;;;;;;;5048786;28;20407;-66
2022/12/25 05:14:36;;;;;;;99.00;31.53;;;;;;;;;;5048460;28;20138;-66
2022/12/25 05:17:02;;;;;;;94.90;30.20;;;;;;;;;;5047406;28;20045;-66
2022/12/25 05:19:28;;;;;;;79.47;28.70;;;;;;;;;;5048679;28;20055;-66
2022/12/25 05:21:54;;;;;;;79.60;26.93;;;;;;;;;;5048546;28;20850;-66
2022/12/25 05:24:24;;;;;;;78.97;27.63;;;;;;;;;;5048490;28;20419;-66
2022/12/25 05:26:50;;;;;;;90.80;30.77;;;;;;;;;;5048452;28;20078;-66
2022/12/25 05:29:16;;;;;;;84.97;28.70;;;;;;;;;;5048232;28;20053;-66
2022/12/25 05:31:42;;;;;;;76.00;27.30;;;;;;;;;;5048526;28;20131;-65
2022/12/25 05:34:08;;;;;;;81.63;29.43;;;;;;;;;;5047143;28;20065;-65
2022/12/25 05:36:34;;;;;;;79.50;29.83;;;;;;;;;;5048092;28;20207;-66
2022/12/25 05:39:00;;;;;;;80.13;27.17;;;;;;;;;;5047717;28;20041;-66
2022/12/25 05:41:26;;;;;;;76.33;27.60;;;;;;;;;;5048747;28;20491;-66
2022/12/25 05:43:52;;;;;;;82.67;29.37;;;;;;;;;;5048388;28;20163;-66
2022/12/25 05:46:18;;;;;;;85.53;29.50;;;;;;;;;;5047122;28;20065;-66
2022/12/25 05:48:44;;;;;;;73.07;28.93;;;;;;;;;;5048216;28;20048;-66
2022/12/25 05:51:11;;;;;;;69.13;27.77;;;;;;;;;;5030891;28;21012;-66
2022/12/25 05:53:37;;;;;;;73.87;27.47;;;;;;;;;;5048305;28;20083;-66
2022/12/25 05:56:05;;;;;;;76.83;28.30;;;;;;;;;;5047664;28;20492;-66
2022/12/25 05:58:32;;;;;;;76.90;26.63;;;;;;;;;;5047009;28;20084;-66
2022/12/25 06:00:58;;;;;;;66.67;25.47;;;;;;;;;;5047542;28;20088;-66
2022/12/25 06:03:24;;;;;;;73.20;27.13;;;;;;;;;;5048015;28;20554;-66
2022/12/25 06:05:50;;;;;;;80.40;28.47;;;;;;;;;;5048232;28;20048;-66
2022/12/25 06:08:16;;;;;;;73.13;28.23;;;;;;;;;;5046641;28;20060;-66
2022/12/25 06:10:42;;;;;;;66.57;25.87;;;;;;;;;;5048202;28;20381;-66
2022/12/25 06:13:08;;;;;;;63.13;26.10;;;;;;;;;;5047795;28;20055;-66
2022/12/25 06:15:34;;;;;;;71.90;26.37;;;;;;;;;;5048063;28;20037;-66
2022/12/25 06:18:00;;;;;;;66.03;25.67;;;;;;;;;;5046112;28;20396;-66
2022/12/25 06:20:26;;;;;;;61.07;25.73;;;;;;;;;;5047931;28;20045;-66
2022/12/25 06:22:52;;;;;;;71.27;27.67;;;;;;;;;;5047792;28;20049;-66
2022/12/25 06:25:18;;;;;;;58.80;25.30;;;;;;;;;;5046642;28;20048;-66
2022/12/25 06:27:44;;;;;;;69.90;26.33;;;;;;;;;;5047997;28;20094;-66
2022/12/25 06:30:10;;;;;;;63.60;25.00;;;;;;;;;;5047670;28;20446;-66
2022/12/25 06:32:36;;;;;;;63.27;24.60;;;;;;;;;;5047096;28;20471;-66
2022/12/25 06:35:03;;;;;;;60.97;24.43;;;;;;;;;;5047814;28;20041;-66
2022/12/25 06:37:29;;;;;;;60.43;24.37;;;;;;;;;;5047662;28;20114;-66
2022/12/25 06:39:54;;;;;;;69.03;24.13;;;;;;;;;;5047529;28;20049;-66
2022/12/25 06:42:20;;;;;;;69.23;25.83;;;;;;;;;;5046837;28;20534;-66
2022/12/25 06:44:46;;;;;;;63.83;25.97;;;;;;;;;;5047872;28;20057;-66
2022/12/25 06:47:12;;;;;;;63.57;24.53;;;;;;;;;;5046477;28;20041;-66
2022/12/25 06:49:38;;;;;;;56.47;23.20;;;;;;;;;;5046765;28;20448;-66
2022/12/25 06:52:04;;;;;;;57.70;24.47;;;;;;;;;;5047636;28;20041;-66
2022/12/25 06:54:30;;;;;;;51.80;22.90;;;;;;;;;;5047576;28;20052;-66
2022/12/25 06:56:56;;;;;;;67.03;25.20;;;;;;;;;;5047110;28;20368;-66
2022/12/25 06:59:22;;;;;;;71.27;25.67;;;;;;;;;;5047703;28;20045;-66
2022/12/25 07:01:50;;;;;;;58.43;24.40;;;;;;;;;;5047573;28;20049;-67
2022/12/25 07:04:19;;;;;;;67.13;24.40;;;;;;;;;;5047336;28;20067;-66
2022/12/25 07:06:45;;;;;;;54.20;24.67;;;;;;;;;;5047410;28;20041;-66
2022/12/25 07:09:11;;;;;;;66.73;24.50;;;;;;;;;;5047577;28;20045;-66
2022/12/25 07:11:37;;;;;;;61.13;24.03;;;;;;;;;;5045929;28;20056;-66
2022/12/25 07:14:03;;;;;;;58.87;23.30;;;;;;;;;;5033102;28;20041;-66
2022/12/25 07:16:29;;;;;;;60.23;23.50;;;;;;;;;;5051083;28;20056;-66
2022/12/25 07:18:55;;;;;;;54.10;23.00;;;;;;;;;;5032913;28;20534;-66
2022/12/25 07:21:21;;;;;;;45.80;19.90;;;;;;;;;;5049500;28;20055;-66
2022/12/25 07:23:49;;;;;;;46.67;21.83;;;;;;;;;;5051054;28;20040;-66
2022/12/25 07:26:19;;;;;;;55.67;20.37;;;;;;;;;;5049391;28;20509;-66
2022/12/25 07:28:45;;;;;;;55.77;21.97;;;;;;;;;;5050623;28;20554;-66
2022/12/25 07:31:15;;;;;;;46.23;20.00;;;;;;;;;;5050499;28;20113;-66
2022/12/25 07:33:41;;;;;;;60.70;20.07;;;;;;;;;;5048844;28;20503;-66
2022/12/25 07:36:08;;;;;;;51.77;20.47;;;;;;;;;;5050572;28;20076;-66
2022/12/25 07:38:34;;;;;;;48.57;20.70;;;;;;;;;;5050369;28;20700;-66
2022/12/25 07:41:00;;;;;;;48.57;20.40;;;;;;;;;;5050506;28;20123;-66
2022/12/25 07:43:26;;;;;;;38.10;18.17;;;;;;;;;;5050634;28;20055;-66
2022/12/25 07:45:57;;;;;;;52.03;20.33;;;;;;;;;;5048653;28;20057;-66
2022/12/25 07:48:23;;;;;;;45.83;18.90;;;;;;;;;;5050700;28;20060;-66
2022/12/25 07:50:54;;;;;;;52.90;19.27;;;;;;;;;;5048910;28;20458;-66
2022/12/25 07:53:20;;;;;;;31.70;16.93;;;;;;;;;;5050160;28;20045;-66
2022/12/25 07:55:46;;;;;;;54.77;18.93;;;;;;;;;;5049935;28;20063;-66
2022/12/25 07:58:12;;;;;;;55.93;19.40;;;;;;;;;;5048972;28;20045;-66
2022/12/25 08:00:38;;;;;;;38.13;16.30;;;;;;;;;;5049773;28;20048;-66
2022/12/25 08:03:04;;;;;;;45.50;18.13;;;;;;;;;;5048775;28;20049;-66
2022/12/25 08:05:32;;;;;;;45.60;16.83;;;;;;;;;;5050003;28;20563;-66
2022/12/25 08:07:58;;;;;;;43.93;16.63;;;;;;;;;;5049414;28;20041;-66
2022/12/25 08:10:24;;;;;;;40.47;17.47;;;;;;;;;;5049896;28;20410;-66
2022/12/25 08:12:50;;;;;;;42.17;16.23;;;;;;;;;;5049848;28;20059;-66
2022/12/25 08:15:16;;;;;;;43.53;16.03;;;;;;;;;;5049894;28;20128;-66
2022/12/25 08:17:42;;;;;;;33.60;16.30;;;;;;;;;;5049267;28;20048;-66
2022/12/25 08:20:09;;;;;;;37.60;16.50;;;;;;;;;;5048516;28;20053;-66
2022/12/25 08:22:35;;;;;;;34.13;16.00;;;;;;;;;;5048303;28;20415;-66
2022/12/25 08:25:01;;;;;;;34.33;15.00;;;;;;;;;;5047526;28;20051;-66
2022/12/25 08:27:27;;;;;;;33.57;14.17;;;;;;;;;;5031514;28;20040;-66
2022/12/25 08:29:53;;;;;;;38.33;15.67;;;;;;;;;;5047322;28;20048;-66
2022/12/25 08:32:19;;;;;;;38.13;15.93;;;;;;;;;;5049352;28;20403;-66
2022/12/25 08:34:45;;;;;;;35.30;15.70;;;;;;;;;;5049142;28;20080;-66
2022/12/25 08:37:11;;;;;;;34.77;15.30;;;;;;;;;;5048738;28;20047;-66
2022/12/25 08:39:37;;;;;;;34.27;15.17;;;;;;;;;;5048883;28;20127;-66
2022/12/25 08:42:03;;;;;;;32.73;15.17;;;;;;;;;;5049017;28;20049;-66
2022/12/25 08:44:29;;;;;;;38.93;15.03;;;;;;;;;;5048767;28;20136;-66
2022/12/25 08:46:55;;;;;;;47.13;16.73;;;;;;;;;;5049148;28;20124;-66
2022/12/25 08:49:21;;;;;;;43.13;15.57;;;;;;;;;;5049046;28;20458;-66
2022/12/25 08:51:47;;;;;;;36.07;14.40;;;;;;;;;;5047587;28;20037;-66
2022/12/25 08:54:13;;;;;;;29.63;13.90;;;;;;;;;;5047890;28;20051;-66
2022/12/25 08:56:39;;;;;;;34.27;14.03;;;;;;;;;;5048993;28;20147;-66
2022/12/25 08:59:05;;;;;;;37.27;14.23;;;;;;;;;;5048598;28;20037;-66
2022/12/25 09:01:31;;;;;;;40.53;13.93;;;;;;;;;;5048713;28;20045;-66
2022/12/25 09:03:57;;;;;;;32.17;12.60;;;;;;;;;;5047614;28;20041;-66
2022/12/25 09:06:23;;;;;;;27.97;12.10;;;;;;;;;;5048602;28;20131;-66
2022/12/25 09:08:49;;;;;;;29.70;12.73;;;;;;;;;;5048099;28;20048;-66
2022/12/25 09:11:16;;;;;;;31.57;13.07;;;;;;;;;;5048649;28;20041;-66
2022/12/25 09:13:42;;;;;;;33.57;14.30;;;;;;;;;;5048348;28;20124;-66
2022/12/25 09:16:09;;;;;;;26.57;12.13;;;;;;;;;;5048359;28;20092;-66
2022/12/25 09:18:35;;;;;;;33.23;12.20;;;;;;;;;;5048552;28;20040;-66
2022/12/25 09:21:03;;;;;;;28.30;11.70;;;;;;;;;;5047914;28;20388;-66
2022/12/25 09:23:29;;;;;;;27.37;10.77;;;;;;;;;;5046719;28;20072;-66
2022/12/25 09:25:58;;;;;;;23.47;11.30;;;;;;;;;;5048314;28;20128;-65
2022/12/25 09:28:24;;;;;;;24.47;11.30;;;;;;;;;;5048311;28;20154;-66
2022/12/25 09:30:51;;;;;;;28.07;10.80;;;;;;;;;;5048150;28;20439;-66
2022/12/25 09:33:17;;;;;;;22.47;10.87;;;;;;;;;;5046426;28;20048;-66
2022/12/25 09:35:43;;;;;;;24.37;10.63;;;;;;;;;;5046204;28;20064;-66
2022/12/25 09:38:09;;;;;;;22.80;10.80;;;;;;;;;;5047846;28;20536;-66
2022/12/25 09:40:35;;;;;;;21.30;10.50;;;;;;;;;;5030203;28;20061;-66
2022/12/25 09:43:02;;;;;;;19.00;9.80;;;;;;;;;;5047908;28;20050;-66
2022/12/25 09:45:36;;;;;;;20.93;10.37;;;;;;;;;;5047545;28;20056;-66
2022/12/25 09:48:03;;;;;;;21.17;10.53;;;;;;;;;;5047916;28;20506;-66
2022/12/25 09:50:44;;;;;;;27.80;10.27;;;;;;;;;;5047888;28;20045;-66
2022/12/25 09:53:21;;;;;;;25.00;11.50;;;;;;;;;;5046158;28;20060;-66
2022/12/25 09:55:53;;;;;;;26.87;11.00;;;;;;;;;;5047682;28;20053;-66
2022/12/25 09:58:19;;;;;;;32.60;11.20;;;;;;;;;;5047314;28;20045;-66
2022/12/25 10:00:57;;;;;;;24.67;10.83;;;;;;;;;;5046474;28;20083;-66
2022/12/25 10:03:43;;;;;;;30.20;11.60;;;;;;;;;;5047725;28;20045;-66
2022/12/25 10:06:27;;;;;;;23.53;10.47;;;;;;;;;;5047784;28;20083;-66
2022/12/25 10:08:55;;;;;;;26.20;11.30;;;;;;;;;;5047019;28;20052;-67
2022/12/25 10:11:21;;;;;;;27.40;11.53;;;;;;;;;;5047747;28;20080;-66
2022/12/25 10:13:55;;;;;;;28.30;12.63;;;;;;;;;;5047814;28;20095;-66
2022/12/25 10:16:37;;;;;;;25.07;10.43;;;;;;;;;;5046635;28;20447;-66
2022/12/25 10:19:03;;;;;;;30.57;11.83;;;;;;;;;;5047253;28;20045;-67
2022/12/25 10:21:29;;;;;;;28.27;11.87;;;;;;;;;;5047711;28;20045;-66
2022/12/25 10:23:57;;;;;;;23.37;12.53;;;;;;;;;;5048021;28;20049;-66
2022/12/25 10:26:25;;;;;;;27.80;13.10;;;;;;;;;;5047187;28;20057;-67
2022/12/25 10:28:55;;;;;;;30.30;12.83;;;;;;;;;;5047061;28;20090;-66
2022/12/25 10:31:29;;;;;;;31.97;13.20;;;;;;;;;;5047271;28;20119;-67
2022/12/25 10:33:55;;;;;;;25.02;11.27;;;;;;;;;;5047384;28;20067;-66
2022/12/25 10:36:23;;;;;;;26.30;11.87;;;;;;;;;;5046830;28;20056;-66
2022/12/25 10:38:49;;;;;;;32.20;11.97;;;;;;;;;;5047595;28;20132;-65
2022/12/25 10:41:31;;;;;;;20.83;10.20;;;;;;;;;;5047369;28;20045;-66
2022/12/25 10:43:57;;;;;;;24.77;11.57;;;;;;;;;;5047322;28;20060;-65
2022/12/25 10:46:24;;;;;;;25.30;11.27;;;;;;;;;;5029282;28;20060;-67
2022/12/25 10:48:55;;;;;;;22.73;11.37;;;;;;;;;;5051268;28;20041;-67
2022/12/25 10:51:26;;;;;;;25.40;11.90;;;;;;;;;;5050610;28;20076;-64
2022/12/25 10:53:52;;;;;;;31.10;12.10;;;;;;;;;;5050825;28;20422;-64
2022/12/25 10:56:18;;;;;;;27.23;12.27;;;;;;;;;;5052036;28;20045;-65
2022/12/25 10:58:44;;;;;;;27.00;10.47;;;;;;;;;;5051158;28;20499;-64
2022/12/25 11:01:11;;;;;;;28.87;12.13;;;;;;;;;;5051964;28;20037;-64
2022/12/25 11:03:38;;;;;;;26.87;11.50;;;;;;;;;;5051292;28;20057;-64
2022/12/25 11:06:05;;;;;;;30.73;12.57;;;;;;;;;;5051401;28;20041;-65
2022/12/25 11:08:33;;;;;;;29.43;12.50;;;;;;;;;;5049789;28;20045;-64
2022/12/25 11:11:04;;;;;;;31.90;12.97;;;;;;;;;;5049591;28;20502;-65
2022/12/25 11:13:31;;;;;;;41.63;15.13;;;;;;;;;;5057817;28;20345;-65
2022/12/25 11:16:02;;;;;;;33.70;13.90;;;;;;;;;;5071024;28;20127;-65
2022/12/25 11:18:31;;;;;;;33.37;14.27;;;;;;;;;;5064863;28;20136;-64
2022/12/25 11:20:59;;;;;;;37.73;14.73;;;;;;;;;;5050433;28;20124;-65
2022/12/25 11:23:26;;;;;;;30.90;13.47;;;;;;;;;;5050401;28;20044;-65
2022/12/25 11:26:00;;;;;;;37.70;14.97;;;;;;;;;;5050818;28;20060;-65
2022/12/25 11:28:26;;;;;;;33.67;13.80;;;;;;;;;;5050605;28;20047;-65
2022/12/25 11:30:56;;;;;;;33.17;14.70;;;;;;;;;;5049716;28;20480;-65
2022/12/25 11:33:26;;;;;;;31.77;13.67;;;;;;;;;;5054708;28;20473;-66
2022/12/25 11:35:54;;;;;;;29.80;13.67;;;;;;;;;;5066902;28;20506;-66
2022/12/25 11:38:20;;;;;;;45.40;16.27;;;;;;;;;;5054316;28;20036;-66
2022/12/25 11:40:51;;;;;;;39.37;15.20;;;;;;;;;;5063872;28;20041;-66
2022/12/25 11:43:39;;;;;;;31.67;14.53;;;;;;;;;;5058099;28;20041;-66
2022/12/25 11:46:11;;;;;;;37.80;15.70;;;;;;;;;;5065644;28;20387;-66
2022/12/25 11:48:41;;;;;;;35.07;15.27;;;;;;;;;;5056765;28;20495;-66
2022/12/25 11:51:09;;;;;;;30.27;15.47;;;;;;;;;;5035340;28;20452;-66
2022/12/25 11:53:40;;;;;;;37.10;16.33;;;;;;;;;;5056151;28;20123;-66
2022/12/25 11:56:08;;;;;;;32.83;16.27;;;;;;;;;;5060346;28;20507;-66
2022/12/25 11:58:34;;;;;;;41.27;16.60;;;;;;;;;;5067768;28;20048;-66
2022/12/25 12:01:02;;;;;;;33.50;14.67;;;;;;;;;;5068336;28;20052;-66
2022/12/25 12:03:30;;;;;;;32.23;15.23;;;;;;;;;;5059350;28;20037;-66
2022/12/25 12:05:58;;;;;;;39.97;16.90;;;;;;;;;;5058084;28;20048;-66
2022/12/25 12:08:24;;;;;;;28.93;13.80;;;;;;;;;;5059293;28;20083;-66
2022/12/25 12:11:14;;;;;;;29.30;14.10;;;;;;;;;;5068784;28;20156;-66
2022/12/25 12:13:43;;;;;;;27.77;13.87;;;;;;;;;;5061372;28;20044;-66
2022/12/25 12:16:09;;;;;;;29.93;13.73;;;;;;;;;;5069264;28;20507;-66
2022/12/25 12:18:35;;;;;;;29.17;14.27;;;;;;;;;;5069419;28;20470;-66
2022/12/25 12:21:01;;;;;;;34.90;16.50;;;;;;;;;;5069044;28;20505;-66
2022/12/25 12:23:28;;;;;;;37.50;16.83;;;;;;;;;;5045692;28;20132;-66
2022/12/25 12:25:55;;;;;;;41.73;17.23;;;;;;;;;;5070129;28;20510;-66
2022/12/25 12:28:22;;;;;;;35.63;16.23;;;;;;;;;;5067299;28;20045;-66
2022/12/25 12:30:59;;;;;;;34.83;15.27;;;;;;;;;;5068598;28;20051;-66
2022/12/25 12:33:28;;;;;;;30.03;14.50;;;;;;;;;;5066895;28;20074;-66
2022/12/25 12:35:55;;;;;;;32.27;15.20;;;;;;;;;;5058421;28;20155;-67
2022/12/25 12:38:23;;;;;;;34.30;16.63;;;;;;;;;;5069546;28;20050;-67
2022/12/25 12:40:57;;;;;;;28.77;14.03;;;;;;;;;;5050815;28;20498;-67
2022/12/25 12:43:27;;;;;;;34.60;14.57;;;;;;;;;;5059393;28;20041;-66
2022/12/25 12:46:00;;;;;;;30.67;13.93;;;;;;;;;;5057992;28;20113;-66
2022/12/25 12:48:27;;;;;;;45.08;16.42;;;;;;;;;;5068667;28;20093;-67
2022/12/25 12:51:23;;;;;;;38.13;17.07;;;;;;;;;;5068496;28;20455;-66
2022/12/25 12:53:49;;;;;;;40.67;16.30;;;;;;;;;;5025475;28;20512;-66
2022/12/25 12:56:19;;;;;;;36.40;15.77;;;;;;;;;;5052049;28;20079;-66
2022/12/25 12:58:50;;;;;;;38.67;17.00;;;;;;;;;;5066604;28;20491;-67
2022/12/25 13:01:19;;;;;;;47.87;17.97;;;;;;;;;;5066712;28;20075;-67
2022/12/25 13:03:54;;;;;;;34.93;17.97;;;;;;;;;;5057192;28;20044;-66
2022/12/25 13:06:22;;;;;;;39.80;18.77;;;;;;;;;;5056350;28;20131;-67
2022/12/25 13:09:11;;;;;;;41.07;17.97;;;;;;;;;;5068344;28;20518;-67
2022/12/25 13:11:40;;;;;;;47.43;20.50;;;;;;;;;;5067877;28;20076;-67
2022/12/25 13:14:14;;;;;;;50.47;21.90;;;;;;;;;;5050159;28;20049;-67
2022/12/25 13:16:42;;;;;;;49.53;20.40;;;;;;;;;;5062737;28;20101;-67
2022/12/25 13:19:11;;;;;;;40.07;20.93;;;;;;;;;;5058393;28;20041;-67
2022/12/25 13:21:37;;;;;;;38.33;18.80;;;;;;;;;;5053773;28;20071;-67
2022/12/25 13:24:07;;;;;;;44.87;20.90;;;;;;;;;;5050588;28;20518;-67
2022/12/25 13:26:34;;;;;;;40.00;20.17;;;;;;;;;;5066939;28;20424;-67
2022/12/25 13:29:00;;;;;;;43.20;19.93;;;;;;;;;;5065538;28;20113;-67
2022/12/25 13:31:27;;;;;;;47.73;21.07;;;;;;;;;;5067945;28;20354;-67
2022/12/25 13:34:02;;;;;;;51.63;21.70;;;;;;;;;;5054745;28;20051;-67
2022/12/25 13:36:29;;;;;;;54.00;22.97;;;;;;;;;;5065499;28;20052;-67
2022/12/25 13:38:57;;;;;;;52.60;23.83;;;;;;;;;;5059308;28;20072;-68
2022/12/25 13:44:18;;;;;;;46.27;23.27;;;;;;;;;;5048128;28;20044;-67
2022/12/25 13:46:45;;;;;;;56.90;25.60;;;;;;;;;;5062249;28;20061;-67
2022/12/25 13:49:15;;;;;;;69.33;27.87;;;;;;;;;;5065311;28;20056;-67
2022/12/25 13:51:41;;;;;;;56.90;24.97;;;;;;;;;;5055965;28;20060;-68
2022/12/25 13:54:09;;;;;;;71.33;28.97;;;;;;;;;;5057208;28;20074;-67
2022/12/25 13:56:35;;;;;;;64.87;28.37;;;;;;;;;;5065590;28;20048;-67
2022/12/25 13:59:03;;;;;;;61.73;28.07;;;;;;;;;;5062174;28;20044;-67
2022/12/25 14:01:29;;;;;;;53.47;26.40;;;;;;;;;;5052053;28;20044;-67
2022/12/25 14:03:55;;;;;;;54.17;27.00;;;;;;;;;;5041754;28;20048;-67
2022/12/25 14:06:29;;;;;;;60.13;27.53;;;;;;;;;;5066803;28;20041;-68
2022/12/25 14:08:57;;;;;;;63.07;27.93;;;;;;;;;;5066971;28;20048;-68
2022/12/25 14:11:24;;;;;;;61.60;27.43;;;;;;;;;;5064854;28;20075;-68
2022/12/25 14:13:52;;;;;;;65.53;27.43;;;;;;;;;;5065973;28;20040;-68
2022/12/25 14:16:18;;;;;;;57.37;27.17;;;;;;;;;;5065868;28;20052;-67
2022/12/25 14:18:55;;;;;;;51.00;25.77;;;;;;;;;;5066058;28;20052;-67
2022/12/25 14:21:27;;;;;;;60.60;27.93;;;;;;;;;;5065297;28;20320;-67
2022/12/25 14:23:53;;;;;;;54.27;26.17;;;;;;;;;;5071541;28;20127;-67
2022/12/25 14:26:25;;;;;;;62.60;27.27;;;;;;;;;;5070036;28;20052;-67
2022/12/25 14:28:53;;;;;;;75.07;30.47;;;;;;;;;;5071309;28;20399;-67
2022/12/25 14:31:19;;;;;;;61.17;26.03;;;;;;;;;;5061362;28;20048;-67
2022/12/25 14:33:46;;;;;;;59.23;26.27;;;;;;;;;;5069748;28;20048;-67
2022/12/25 14:36:12;;;;;;;63.10;26.67;;;;;;;;;;5070440;28;20410;-67
2022/12/25 14:38:41;;;;;;;71.67;28.63;;;;;;;;;;5072106;28;20052;-67
2022/12/25 14:41:20;;;;;;;64.20;27.27;;;;;;;;;;5070597;28;20052;-67
2022/12/25 14:43:55;;;;;;;75.60;29.07;;;;;;;;;;5071525;28;20090;-67
2022/12/25 14:46:25;;;;;;;80.47;30.40;;;;;;;;;;5070390;28;20096;-67
2022/12/25 14:49:06;;;;;;;67.93;27.67;;;;;;;;;;5069030;28;20067;-67
2022/12/25 14:51:33;;;;;;;70.60;27.80;;;;;;;;;;5057822;28;20052;-67
2022/12/25 14:54:01;;;;;;;68.77;28.47;;;;;;;;;;5070600;28;20101;-67
2022/12/25 14:56:28;;;;;;;65.40;27.57;;;;;;;;;;5070735;28;20094;-67
2022/12/25 14:58:55;;;;;;;70.80;28.67;;;;;;;;;;5068222;28;20087;-68
2022/12/25 15:01:26;;;;;;;62.40;26.47;;;;;;;;;;5054175;28;20040;-68
2022/12/25 15:04:02;;;;;;;74.03;30.07;;;;;;;;;;5054690;28;20045;-68
2022/12/25 15:06:29;;;;;;;65.73;28.40;;;;;;;;;;5054748;28;20120;-67
2022/12/25 15:08:59;;;;;;;87.23;31.30;;;;;;;;;;5060646;28;20051;-68
2022/12/25 15:11:25;;;;;;;97.47;32.60;;;;;;;;;;5054586;28;20041;-68
2022/12/25 15:13:51;;;;;;;86.07;32.67;;;;;;;;;;5068832;28;20087;-68
2022/12/25 15:16:32;;;;;;;81.83;31.90;;;;;;;;;;5071071;28;20083;-68
2022/12/25 15:18:59;;;;;;;76.87;29.47;;;;;;;;;;5071012;28;20044;-67
2022/12/25 15:21:27;;;;;;;104.73;34.23;;;;;;;;;;5066334;28;20174;-67
2022/12/25 15:23:53;;;;;;;71.60;29.00;;;;;;;;;;5070109;28;20049;-68
2022/12/25 15:26:19;;;;;;;64.33;27.93;;;;;;;;;;5067843;28;20094;-67
2022/12/25 15:28:45;;;;;;;92.43;33.77;;;;;;;;;;5069598;28;20472;-67
2022/12/25 15:31:20;;;;;;;89.87;31.23;;;;;;;;;;5068146;28;20105;-67
2022/12/25 15:33:47;;;;;;;78.17;28.47;;;;;;;;;;5070446;28;20084;-68
2022/12/25 15:36:13;;;;;;;88.90;31.27;;;;;;;;;;5065476;28;20040;-67
2022/12/25 15:38:39;;;;;;;89.03;31.53;;;;;;;;;;5056448;28;20045;-67
2022/12/25 15:42:09;;;;;;;93.90;32.73;;;;;;;;;;5047085;28;20040;-67
2022/12/25 15:44:02;;;;;;;102.00;33.33;;;;;;;;;;5062617;28;20079;-68
2022/12/25 15:46:28;;;;;;;86.70;30.17;;;;;;;;;;5069564;28;20098;-67
2022/12/25 15:48:54;;;;;;;90.20;32.20;;;;;;;;;;5060680;28;20060;-68
2022/12/25 15:51:20;;;;;;;90.47;29.53;;;;;;;;;;5062163;28;20127;-67
2022/12/25 15:53:46;;;;;;;82.07;28.83;;;;;;;;;;5070381;28;20040;-67
2022/12/25 15:56:12;;;;;;;89.43;29.77;;;;;;;;;;5070421;28;20094;-67
2022/12/25 15:58:38;;;;;;;86.17;30.70;;;;;;;;;;5062011;28;20037;-67
2022/12/25 16:01:04;;;;;;;95.80;33.27;;;;;;;;;;5052754;28;20044;-67
2022/12/25 16:03:30;;;;;;;104.70;33.70;;;;;;;;;;5067700;28;20055;-67
2022/12/25 16:05:56;;;;;;;134.50;38.73;;;;;;;;;;5052042;28;20044;-67
2022/12/25 16:08:22;;;;;;;91.90;31.70;;;;;;;;;;5068681;28;20063;-67